createdAt,value
2022-09-16T00:00:49.740Z,99.99
2022-09-16T00:01:49.764Z,99.99
2022-09-16T00:02:49.699Z,99.99
2022-09-16T00:03:49.677Z,99.99
2022-09-16T00:04:49.655Z,99.99
2022-09-16T00:05:49.642Z,99.99
2022-09-16T00:06:49.623Z,99.99
2022-09-16T00:07:49.607Z,99.99
2022-09-16T00:08:49.585Z,99.99
2022-09-16T00:09:49.570Z,99.99
2022-09-16T00:10:49.547Z,99.99
2022-09-16T00:11:49.535Z,99.99
2022-09-16T00:12:49.511Z,99.99
2022-09-16T00:13:49.519Z,99.99
2022-09-16T00:14:49.474Z,99.99
2022-09-16T00:15:49.460Z,99.99
2022-09-16T00:16:49.443Z,99.99
2022-09-16T00:17:49.431Z,99.99
2022-09-16T00:18:49.404Z,99.99
2022-09-16T00:19:49.385Z,99.99
2022-09-16T00:20:49.368Z,99.99
2022-09-16T00:21:49.347Z,99.99
2022-09-16T00:22:49.331Z,99.99
2022-09-16T00:23:49.315Z,99.99
2022-09-16T00:24:49.296Z,99.99
2022-09-16T00:25:49.280Z,99.99
2022-09-16T00:26:49.255Z,99.99
2022-09-16T00:27:49.245Z,99.99
2022-09-16T00:28:49.227Z,99.99
2022-09-16T00:29:49.230Z,99.99
2022-09-16T00:30:49.182Z,99.99
2022-09-16T00:31:49.217Z,99.99
2022-09-16T00:32:49.148Z,99.99
2022-09-16T00:33:49.134Z,99.99
2022-09-16T00:34:49.109Z,99.99
2022-09-16T00:35:49.097Z,99.99
2022-09-16T00:36:49.079Z,99.99
2022-09-16T00:37:49.060Z,99.99
2022-09-16T00:38:49.043Z,99.99
2022-09-16T00:39:49.083Z,99.99
2022-09-16T00:40:49.001Z,99.99
2022-09-16T00:41:48.995Z,99.99
2022-09-16T00:42:48.969Z,99.99
2022-09-16T00:43:48.947Z,99.99
2022-09-16T00:44:48.931Z,99.99
2022-09-16T00:45:48.944Z,99.99
2022-09-16T00:46:48.920Z,99.99
2022-09-16T00:47:48.880Z,99.99
2022-09-16T00:48:48.858Z,99.99
2022-09-16T00:49:48.838Z,99.99
2022-09-16T00:50:48.820Z,99.99
2022-09-16T00:51:48.805Z,99.99
2022-09-16T00:52:48.786Z,99.99
2022-09-16T00:53:48.860Z,99.99
2022-09-16T00:54:48.747Z,99.99
2022-09-16T00:55:48.737Z,99.99
2022-09-16T00:56:48.718Z,99.99
2022-09-16T00:57:48.690Z,99.99
2022-09-16T00:58:48.675Z,99.99
2022-09-16T00:59:48.654Z,99.99
2022-09-16T01:00:48.687Z,99.99
2022-09-16T01:01:48.698Z,99.99
2022-09-16T01:02:48.601Z,99.99
2022-09-16T01:03:48.587Z,99.99
2022-09-16T01:04:48.572Z,99.99
2022-09-16T01:05:48.545Z,99.99
2022-09-16T01:06:48.532Z,99.99
2022-09-16T01:07:48.512Z,99.99
2022-09-16T01:08:48.493Z,99.99
2022-09-16T01:09:48.476Z,99.99
2022-09-16T01:10:48.454Z,99.99
2022-09-16T01:11:48.438Z,99.99
2022-09-16T01:12:48.416Z,99.99
2022-09-16T01:13:48.398Z,99.99
2022-09-16T01:14:48.381Z,99.99
2022-09-16T01:15:48.440Z,99.99
2022-09-16T01:16:48.343Z,99.99
2022-09-16T01:17:48.357Z,99.99
2022-09-16T01:18:48.308Z,99.99
2022-09-16T01:19:48.285Z,99.99
2022-09-16T01:20:48.278Z,99.99
2022-09-16T01:21:48.255Z,99.99
2022-09-16T01:22:48.233Z,99.99
2022-09-16T01:23:48.271Z,99.99
2022-09-16T01:24:48.202Z,99.99
2022-09-16T01:25:48.180Z,99.99
2022-09-16T01:26:48.162Z,99.99
2022-09-16T01:27:48.140Z,99.99
2022-09-16T01:28:48.138Z,99.99
2022-09-16T01:29:48.108Z,99.99
2022-09-16T01:30:48.093Z,99.99
2022-09-16T01:31:48.149Z,99.99
2022-09-16T01:32:48.058Z,99.99
2022-09-16T01:33:48.065Z,99.99
2022-09-16T01:34:48.012Z,99.99
2022-09-16T01:35:47.999Z,99.99
2022-09-16T01:36:47.980Z,99.99
2022-09-16T01:37:47.963Z,99.99
2022-09-16T01:38:47.942Z,99.99
2022-09-16T01:39:47.994Z,99.99
2022-09-16T01:40:47.905Z,99.99
2022-09-16T01:41:47.886Z,99.99
2022-09-16T01:42:47.862Z,99.99
2022-09-16T01:43:47.846Z,99.99
2022-09-16T01:44:47.829Z,99.99
2022-09-16T01:45:47.810Z,99.99
2022-09-16T01:46:47.938Z,99.99
2022-09-16T01:47:47.771Z,99.99
2022-09-16T01:48:53.006Z,99.99
2022-09-16T01:49:47.760Z,99.99
2022-09-16T01:50:47.718Z,99.99
2022-09-16T01:51:47.698Z,99.99
2022-09-16T01:52:47.680Z,99.99
2022-09-16T01:53:47.726Z,99.99
2022-09-16T01:54:47.644Z,99.99
2022-09-16T01:55:47.628Z,99.99
2022-09-16T01:56:47.609Z,99.99
2022-09-16T01:57:47.596Z,99.99
2022-09-16T01:58:47.569Z,99.99
2022-09-16T01:59:47.555Z,99.99
2022-09-16T02:00:47.536Z,99.99
2022-09-16T02:01:47.695Z,99.99
2022-09-16T02:02:47.588Z,99.99
2022-09-16T02:03:47.479Z,99.99
2022-09-16T02:04:47.465Z,99.99
2022-09-16T02:05:47.469Z,99.99
2022-09-16T02:06:47.421Z,99.99
2022-09-16T02:07:47.405Z,99.99
2022-09-16T02:08:47.411Z,99.99
2022-09-16T02:09:47.373Z,99.99
2022-09-16T02:10:47.351Z,99.99
2022-09-16T02:11:47.332Z,99.99
2022-09-16T02:12:47.362Z,99.99
2022-09-16T02:13:47.295Z,99.99
2022-09-16T02:14:47.277Z,99.99
2022-09-16T02:15:47.290Z,99.99
2022-09-16T02:16:47.239Z,99.99
2022-09-16T02:17:47.227Z,99.99
2022-09-16T02:18:47.199Z,99.99
2022-09-16T02:19:47.186Z,99.99
2022-09-16T02:20:47.163Z,99.99
2022-09-16T02:21:47.167Z,99.99
2022-09-16T02:22:47.133Z,99.99
2022-09-16T02:23:47.188Z,99.99
2022-09-16T02:24:47.096Z,99.99
2022-09-16T02:25:47.077Z,99.99
2022-09-16T02:26:47.053Z,99.99
2022-09-16T02:27:47.037Z,99.99
2022-09-16T02:28:47.018Z,99.99
2022-09-16T02:29:46.997Z,99.99
2022-09-16T02:30:46.979Z,99.99
2022-09-16T02:31:46.962Z,99.99
2022-09-16T02:32:46.941Z,99.99
2022-09-16T02:33:46.928Z,99.99
2022-09-16T02:34:46.906Z,99.99
2022-09-16T02:35:46.891Z,99.99
2022-09-16T02:36:46.867Z,99.99
2022-09-16T02:37:46.878Z,99.99
2022-09-16T02:38:46.879Z,99.99
2022-09-16T02:39:46.875Z,99.99
2022-09-16T02:40:46.796Z,99.99
2022-09-16T02:41:46.778Z,99.99
2022-09-16T02:42:46.757Z,99.99
2022-09-16T02:43:46.744Z,99.99
2022-09-16T02:44:46.720Z,99.99
2022-09-16T02:45:46.721Z,99.99
2022-09-16T02:46:46.753Z,99.99
2022-09-16T02:47:46.665Z,99.99
2022-09-16T02:48:46.649Z,99.99
2022-09-16T02:49:46.630Z,99.99
2022-09-16T02:50:46.610Z,99.99
2022-09-16T02:51:46.591Z,99.99
2022-09-16T02:52:46.573Z,99.99
2022-09-16T02:53:46.580Z,99.99
2022-09-16T02:54:46.537Z,99.99
2022-09-16T02:55:46.524Z,99.99
2022-09-16T02:56:46.500Z,99.99
2022-09-16T02:57:46.484Z,99.99
2022-09-16T02:58:46.461Z,99.99
2022-09-16T02:59:46.447Z,99.99
2022-09-16T03:00:46.433Z,99.99
2022-09-16T03:01:46.471Z,99.99
2022-09-16T03:02:46.426Z,99.99
2022-09-16T03:03:46.373Z,99.99
2022-09-16T03:04:46.351Z,99.99
2022-09-16T03:05:46.335Z,99.99
2022-09-16T03:06:46.313Z,99.99
2022-09-16T03:07:46.296Z,99.99
2022-09-16T03:08:46.278Z,99.99
2022-09-16T03:09:46.287Z,99.99
2022-09-16T03:10:46.246Z,99.99
2022-09-16T03:11:46.223Z,99.99
2022-09-16T03:12:46.209Z,99.99
2022-09-16T03:13:46.191Z,99.99
2022-09-16T03:14:46.169Z,99.99
2022-09-16T03:15:46.184Z,99.99
2022-09-16T03:16:46.311Z,99.99
2022-09-16T03:17:46.123Z,99.99
2022-09-16T03:18:46.089Z,99.99
2022-09-16T03:19:46.077Z,99.99
2022-09-16T03:20:46.067Z,99.99
2022-09-16T03:21:46.040Z,99.99
2022-09-16T03:22:46.027Z,99.99
2022-09-16T03:23:46.000Z,99.99
2022-09-16T03:24:45.983Z,99.99
2022-09-16T03:25:45.984Z,99.99
2022-09-16T03:26:45.944Z,99.99
2022-09-16T03:27:45.933Z,99.99
2022-09-16T03:28:45.908Z,99.99
2022-09-16T03:29:46.106Z,99.99
2022-09-16T03:30:45.929Z,99.99
2022-09-16T03:31:45.858Z,99.99
2022-09-16T03:32:45.838Z,99.99
2022-09-16T03:33:45.820Z,99.99
2022-09-16T03:34:45.798Z,99.99
2022-09-16T03:35:45.778Z,99.99
2022-09-16T03:36:45.760Z,99.99
2022-09-16T03:37:45.744Z,99.99
2022-09-16T03:38:45.725Z,99.99
2022-09-16T03:39:45.708Z,99.99
2022-09-16T03:40:45.685Z,99.99
2022-09-16T03:41:45.688Z,99.99
2022-09-16T03:42:45.657Z,99.99
2022-09-16T03:43:45.634Z,99.99
2022-09-16T03:44:45.612Z,99.99
2022-09-16T03:45:45.598Z,99.99
2022-09-16T03:46:45.576Z,99.99
2022-09-16T03:47:45.557Z,99.99
2022-09-16T03:48:45.537Z,99.99
2022-09-16T03:49:45.525Z,99.99
2022-09-16T03:50:45.496Z,99.99
2022-09-16T03:51:45.488Z,99.99
2022-09-16T03:52:45.464Z,99.99
2022-09-16T03:53:45.448Z,99.99
2022-09-16T03:54:45.427Z,99.99
2022-09-16T03:55:45.410Z,99.99
2022-09-16T03:56:45.390Z,99.99
2022-09-16T03:57:45.393Z,99.99
2022-09-16T03:58:45.349Z,99.99
2022-09-16T03:59:45.336Z,99.99
2022-09-16T04:00:45.312Z,99.99
2022-09-16T04:01:45.389Z,99.99
2022-09-16T04:02:45.489Z,99.99
2022-09-16T04:03:45.259Z,99.99
2022-09-16T04:04:45.239Z,99.99
2022-09-16T04:05:45.221Z,99.99
2022-09-16T04:06:45.205Z,99.99
2022-09-16T04:07:45.189Z,99.99
2022-09-16T04:08:45.168Z,99.99
2022-09-16T04:09:45.147Z,99.99
2022-09-16T04:10:45.128Z,99.99
2022-09-16T04:11:45.108Z,99.99
2022-09-16T04:12:45.089Z,99.99
2022-09-16T04:13:45.092Z,99.99
2022-09-16T04:14:45.053Z,99.99
2022-09-16T04:15:45.065Z,99.99
2022-09-16T04:16:45.557Z,99.99
2022-09-16T04:17:45.003Z,99.99
2022-09-16T04:18:44.977Z,99.99
2022-09-16T04:19:44.967Z,99.99
2022-09-16T04:20:44.944Z,99.99
2022-09-16T04:21:44.926Z,99.99
2022-09-16T04:22:44.900Z,99.99
2022-09-16T04:23:44.889Z,99.99
2022-09-16T04:24:44.868Z,99.99
2022-09-16T04:25:44.850Z,99.99
2022-09-16T04:26:44.832Z,99.99
2022-09-16T04:27:44.817Z,99.99
2022-09-16T04:28:44.793Z,99.99
2022-09-16T04:29:44.790Z,99.99
2022-09-16T04:30:44.808Z,99.99
2022-09-16T04:31:44.738Z,99.99
2022-09-16T04:32:44.719Z,99.99
2022-09-16T04:33:44.703Z,99.99
2022-09-16T04:34:44.690Z,99.99
2022-09-16T04:35:44.664Z,99.99
2022-09-16T04:36:44.650Z,99.99
2022-09-16T04:37:44.635Z,99.99
2022-09-16T04:38:44.779Z,99.99
2022-09-16T04:39:44.587Z,99.99
2022-09-16T04:40:44.571Z,99.99
2022-09-16T04:41:44.552Z,99.99
2022-09-16T04:42:44.534Z,99.99
2022-09-16T04:43:44.518Z,99.99
2022-09-16T04:44:44.492Z,99.99
2022-09-16T04:45:44.497Z,99.99
2022-09-16T04:46:44.467Z,99.99
2022-09-16T04:47:44.438Z,99.99
2022-09-16T04:48:44.422Z,99.99
2022-09-16T04:49:44.402Z,99.99
2022-09-16T04:50:44.384Z,99.99
2022-09-16T04:51:44.363Z,99.99
2022-09-16T04:52:44.347Z,99.99
2022-09-16T04:53:44.414Z,99.99
2022-09-16T04:54:44.309Z,99.99
2022-09-16T04:55:44.287Z,99.99
2022-09-16T04:56:44.265Z,99.99
2022-09-16T04:57:44.252Z,99.99
2022-09-16T04:58:44.232Z,99.99
2022-09-16T04:59:44.213Z,99.99
2022-09-16T05:00:44.195Z,99.99
2022-09-16T05:01:44.236Z,99.99
2022-09-16T05:02:44.155Z,99.99
2022-09-16T05:03:44.189Z,99.99
2022-09-16T05:04:44.115Z,99.99
2022-09-16T05:05:44.104Z,99.99
2022-09-16T05:06:44.083Z,99.99
2022-09-16T05:07:44.066Z,99.99
2022-09-16T05:08:44.100Z,99.99
2022-09-16T05:09:44.032Z,99.99
2022-09-16T05:10:44.005Z,99.99
2022-09-16T05:11:43.984Z,99.99
2022-09-16T05:12:49.222Z,99.99
2022-09-16T05:13:43.952Z,99.99
2022-09-16T05:14:43.929Z,99.99
2022-09-16T05:15:47.497Z,99.99
2022-09-16T05:16:43.894Z,99.99
2022-09-16T05:17:51.330Z,99.99
2022-09-16T05:18:43.857Z,99.99
2022-09-16T05:19:43.842Z,99.99
2022-09-16T05:20:43.822Z,99.99
2022-09-16T05:21:43.802Z,99.99
2022-09-16T05:22:43.784Z,99.99
2022-09-16T05:23:55.811Z,99.99
2022-09-16T05:24:43.742Z,99.99
2022-09-16T05:25:43.723Z,99.99
2022-09-16T05:26:43.704Z,99.99
2022-09-16T05:27:43.687Z,99.99
2022-09-16T05:28:43.676Z,99.99
2022-09-16T05:29:43.657Z,99.99
2022-09-16T05:30:43.698Z,99.99
2022-09-16T05:31:43.609Z,99.99
2022-09-16T05:32:43.591Z,99.99
2022-09-16T05:33:43.729Z,99.99
2022-09-16T05:34:43.553Z,99.99
2022-09-16T05:35:43.537Z,99.99
2022-09-16T05:36:43.520Z,99.99
2022-09-16T05:37:43.501Z,99.99
2022-09-16T05:38:59.096Z,99.99
2022-09-16T05:39:43.459Z,99.99
2022-09-16T05:40:43.443Z,99.99
2022-09-16T05:41:43.425Z,99.99
2022-09-16T05:42:43.407Z,99.99
2022-09-16T05:43:43.391Z,99.99
2022-09-16T05:44:43.372Z,99.99
2022-09-16T05:45:43.390Z,99.99
2022-09-16T05:46:43.330Z,99.99
2022-09-16T05:47:43.311Z,99.99
2022-09-16T05:48:43.291Z,99.99
2022-09-16T05:49:43.398Z,99.99
2022-09-16T05:50:43.252Z,99.99
2022-09-16T05:51:43.234Z,99.99
2022-09-16T05:52:43.217Z,99.99
2022-09-16T05:53:43.197Z,99.99
2022-09-16T05:54:43.181Z,99.99
2022-09-16T05:55:43.159Z,99.99
2022-09-16T05:56:43.140Z,99.99
2022-09-16T05:57:43.124Z,99.99
2022-09-16T05:58:43.107Z,99.99
2022-09-16T05:59:43.088Z,99.99
2022-09-16T06:00:43.071Z,99.99
2022-09-16T06:01:43.095Z,99.99
2022-09-16T06:02:43.093Z,99.99
2022-09-16T06:03:43.013Z,99.99
2022-09-16T06:04:43.002Z,99.99
2022-09-16T06:05:45.765Z,99.99
2022-09-16T06:06:42.955Z,99.99
2022-09-16T06:07:42.938Z,99.99
2022-09-16T06:08:42.921Z,99.99
2022-09-16T06:09:42.902Z,99.99
2022-09-16T06:10:42.882Z,99.99
2022-09-16T06:11:42.862Z,99.99
2022-09-16T06:12:42.844Z,99.99
2022-09-16T06:13:42.826Z,99.99
2022-09-16T06:14:42.810Z,99.99
2022-09-16T06:15:42.803Z,99.99
2022-09-16T06:16:42.784Z,99.99
2022-09-16T06:17:42.754Z,99.99
2022-09-16T06:18:42.733Z,99.99
2022-09-16T06:19:42.722Z,99.99
2022-09-16T06:20:42.698Z,99.99
2022-09-16T06:21:42.798Z,99.99
2022-09-16T06:22:42.658Z,99.99
2022-09-16T06:23:42.641Z,99.99
2022-09-16T06:24:42.625Z,99.99
2022-09-16T06:25:42.606Z,99.99
2022-09-16T06:26:42.588Z,99.99
2022-09-16T06:27:42.570Z,99.99
2022-09-16T06:28:42.551Z,99.99
2022-09-16T06:29:42.534Z,99.99
2022-09-16T06:30:42.551Z,99.99
2022-09-16T06:31:42.497Z,99.99
2022-09-16T06:32:42.479Z,99.99
2022-09-16T06:33:42.461Z,99.99
2022-09-16T06:34:42.446Z,99.99
2022-09-16T06:35:42.425Z,99.99
2022-09-16T06:36:45.129Z,99.99
2022-09-16T06:37:42.512Z,99.99
2022-09-16T06:38:42.368Z,99.99
2022-09-16T06:39:42.356Z,99.99
2022-09-16T06:40:42.337Z,99.99
2022-09-16T06:41:42.319Z,99.99
2022-09-16T06:42:42.298Z,99.99
2022-09-16T06:43:42.280Z,99.99
2022-09-16T06:44:42.269Z,99.99
2022-09-16T06:45:42.263Z,99.99
2022-09-16T06:46:42.229Z,99.99
2022-09-16T06:47:42.212Z,99.99
2022-09-16T06:48:42.201Z,99.99
2022-09-16T06:49:42.178Z,99.99
2022-09-16T06:50:42.154Z,99.99
2022-09-16T06:51:42.136Z,99.99
2022-09-16T06:52:42.116Z,99.99
2022-09-16T06:53:42.224Z,99.99
2022-09-16T06:54:42.090Z,99.99
2022-09-16T06:55:42.062Z,99.99
2022-09-16T06:56:42.047Z,99.99
2022-09-16T06:57:42.028Z,99.99
2022-09-16T06:58:42.011Z,99.99
2022-09-16T06:59:41.988Z,99.99
2022-09-16T07:00:41.971Z,99.99
2022-09-16T07:01:42.036Z,99.99
2022-09-16T07:02:41.999Z,99.99
2022-09-16T07:03:41.917Z,99.99
2022-09-16T07:04:41.898Z,99.99
2022-09-16T07:05:41.882Z,99.99
2022-09-16T07:07:11.226Z,99.99
2022-09-16T07:07:41.848Z,99.99
2022-09-16T07:08:41.827Z,99.99
2022-09-16T07:09:41.928Z,99.99
2022-09-16T07:10:41.790Z,99.99
2022-09-16T07:11:41.773Z,99.99
2022-09-16T07:12:41.758Z,99.99
2022-09-16T07:13:41.738Z,99.99
2022-09-16T07:14:41.719Z,99.99
2022-09-16T07:16:02.381Z,99.99
2022-09-16T07:16:41.712Z,99.99
2022-09-16T07:17:41.677Z,99.99
2022-09-16T07:18:41.651Z,99.99
2022-09-16T07:19:41.642Z,99.99
2022-09-16T07:20:41.622Z,99.99
2022-09-16T07:21:41.670Z,99.99
2022-09-16T07:22:41.585Z,99.99
2022-09-16T07:23:41.570Z,99.99
2022-09-16T07:24:41.553Z,99.99
2022-09-16T07:25:41.649Z,99.99
2022-09-16T07:26:41.532Z,99.99
2022-09-16T07:27:41.509Z,99.68
2022-09-16T07:28:41.490Z,97.76
2022-09-16T07:29:41.479Z,95.07
2022-09-16T07:30:41.554Z,92.96
2022-09-16T07:31:41.449Z,92.81
2022-09-16T07:32:41.437Z,90.06
2022-09-16T07:33:41.431Z,88.04
2022-09-16T07:34:41.411Z,87.66
2022-09-16T07:35:41.404Z,85.63
2022-09-16T07:36:41.389Z,83.11
2022-09-16T07:37:42.769Z,80.20
2022-09-16T07:38:41.369Z,76.47
2022-09-16T07:39:41.359Z,75.16
2022-09-16T07:40:41.349Z,73.39
2022-09-16T07:41:41.467Z,70.98
2022-09-16T07:42:41.335Z,70.17
2022-09-16T07:43:41.327Z,69.92
2022-09-16T07:44:41.320Z,69.17
2022-09-16T07:45:41.346Z,68.40
2022-09-16T07:46:41.310Z,67.82
2022-09-16T07:47:41.296Z,68.21
2022-09-16T07:48:41.311Z,68.49
2022-09-16T07:49:41.289Z,67.95
2022-09-16T07:50:41.283Z,67.63
2022-09-16T07:51:41.291Z,65.47
2022-09-16T07:52:41.343Z,65.30
2022-09-16T07:53:41.271Z,65.05
2022-09-16T07:54:41.267Z,66.05
2022-09-16T07:55:41.285Z,66.47
2022-09-16T07:56:41.258Z,66.40
2022-09-16T07:57:41.464Z,63.72
2022-09-16T07:58:41.253Z,65.08
2022-09-16T07:59:41.250Z,65.37
2022-09-16T08:00:41.245Z,65.69
2022-09-16T08:02:41.280Z,64.56
2022-09-16T08:03:41.240Z,63.78
2022-09-16T08:04:41.239Z,63.33
2022-09-16T08:05:41.242Z,61.49
2022-09-16T08:06:41.244Z,61.45
2022-09-16T08:07:41.234Z,60.84
2022-09-16T08:08:41.232Z,61.61
2022-09-16T08:09:47.370Z,62.55
2022-09-16T08:10:41.227Z,61.88
2022-09-16T08:11:41.230Z,61.39
2022-09-16T08:12:41.230Z,61.19
2022-09-16T08:13:41.347Z,62.01
2022-09-16T08:14:41.229Z,63.43
2022-09-16T08:15:41.226Z,63.34
2022-09-16T08:16:41.338Z,63.20
2022-09-16T08:17:41.226Z,62.85
2022-09-16T08:18:41.226Z,62.19
2022-09-16T08:19:41.226Z,60.90
2022-09-16T08:20:41.219Z,59.38
2022-09-16T08:21:41.224Z,57.62
2022-09-16T08:22:41.220Z,57.85
2022-09-16T08:23:41.225Z,57.46
2022-09-16T08:24:41.220Z,57.04
2022-09-16T08:25:41.219Z,57.83
2022-09-16T08:26:41.215Z,59.45
2022-09-16T08:27:41.217Z,59.48
2022-09-16T08:28:57.484Z,59.19
2022-09-16T08:29:41.336Z,58.83
2022-09-16T08:30:41.216Z,58.93
2022-09-16T08:31:41.268Z,59.28
2022-09-16T08:32:41.220Z,58.59
2022-09-16T08:33:41.216Z,57.75
2022-09-16T08:34:41.220Z,56.32
2022-09-16T08:35:41.219Z,55.37
2022-09-16T08:36:41.219Z,54.82
2022-09-16T08:37:41.218Z,54.48
2022-09-16T08:38:41.218Z,52.58
2022-09-16T08:39:41.221Z,51.63
2022-09-16T08:40:41.219Z,51.04
2022-09-16T08:41:41.220Z,51.56
2022-09-16T08:42:41.222Z,49.51
2022-09-16T08:43:41.240Z,50.16
2022-09-16T08:44:41.224Z,51.99
2022-09-16T08:45:41.414Z,52.77
2022-09-16T08:46:41.236Z,51.84
2022-09-16T08:47:41.345Z,51.99
2022-09-16T08:48:41.229Z,51.82
2022-09-16T08:49:44.077Z,52.38
2022-09-16T08:50:41.234Z,51.53
2022-09-16T08:51:41.229Z,51.70
2022-09-16T08:52:41.231Z,51.90
2022-09-16T08:53:41.233Z,51.61
2022-09-16T08:54:41.239Z,50.97
2022-09-16T08:55:41.232Z,49.80
2022-09-16T08:56:44.183Z,49.80
2022-09-16T08:57:41.236Z,49.54
2022-09-16T08:58:41.236Z,49.80
2022-09-16T08:59:41.241Z,49.56
2022-09-16T09:00:41.318Z,49.46
2022-09-16T09:01:41.698Z,49.15
2022-09-16T09:03:41.271Z,48.36
2022-09-16T09:04:41.241Z,48.00
2022-09-16T09:05:41.258Z,50.24
2022-09-16T09:06:41.248Z,50.04
2022-09-16T09:07:41.247Z,51.09
2022-09-16T09:08:41.239Z,53.16
2022-09-16T09:09:41.275Z,52.82
2022-09-16T09:10:41.239Z,51.26
2022-09-16T09:11:41.229Z,51.51
2022-09-16T09:12:42.365Z,50.56
2022-09-16T09:13:41.234Z,49.32
2022-09-16T09:14:41.253Z,48.80
2022-09-16T09:15:41.220Z,49.71
2022-09-16T09:16:41.318Z,49.92
2022-09-16T09:17:48.806Z,50.38
2022-09-16T09:18:41.214Z,51.50
2022-09-16T09:19:41.210Z,51.50
2022-09-16T09:20:41.218Z,51.36
2022-09-16T09:21:41.206Z,51.04
2022-09-16T09:22:41.200Z,50.80
2022-09-16T09:23:41.200Z,49.46
2022-09-16T09:24:41.198Z,48.34
2022-09-16T09:25:41.202Z,47.76
2022-09-16T09:26:41.204Z,48.80
2022-09-16T09:27:41.176Z,49.51
2022-09-16T09:28:41.184Z,49.90
2022-09-16T09:29:41.166Z,50.24
2022-09-16T09:30:41.178Z,48.83
2022-09-16T09:31:41.258Z,47.09
2022-09-16T09:32:49.019Z,46.02
2022-09-16T09:33:46.614Z,46.29
2022-09-16T09:34:41.919Z,45.19
2022-09-16T09:35:41.143Z,44.63
2022-09-16T09:36:41.133Z,44.73
2022-09-16T09:37:41.126Z,44.24
2022-09-16T09:38:41.124Z,44.80
2022-09-16T09:39:41.116Z,44.68
2022-09-16T09:40:41.118Z,46.17
2022-09-16T09:41:41.106Z,46.80
2022-09-16T09:42:41.107Z,46.51
2022-09-16T09:43:41.098Z,49.24
2022-09-16T09:44:41.086Z,51.76
2022-09-16T09:45:41.100Z,53.83
2022-09-16T09:46:41.078Z,53.03
2022-09-16T09:47:41.084Z,51.60
2022-09-16T09:48:41.081Z,50.48
2022-09-16T09:49:41.196Z,52.56
2022-09-16T09:50:41.053Z,53.77
2022-09-16T09:51:41.041Z,55.66
2022-09-16T09:52:41.027Z,57.15
2022-09-16T09:53:41.026Z,56.50
2022-09-16T09:54:41.013Z,56.46
2022-09-16T09:55:41.003Z,54.77
2022-09-16T09:56:40.997Z,52.66
2022-09-16T09:57:41.009Z,51.35
2022-09-16T09:58:41.005Z,51.97
2022-09-16T09:59:40.973Z,50.56
2022-09-16T10:00:41.006Z,49.83
2022-09-16T10:01:41.016Z,48.44
2022-09-16T10:02:41.333Z,48.80
2022-09-16T10:03:40.936Z,50.34
2022-09-16T10:04:40.929Z,51.84
2022-09-16T10:05:41.045Z,53.30
2022-09-16T10:06:40.915Z,53.66
2022-09-16T10:07:40.900Z,54.94
2022-09-16T10:08:40.891Z,55.49
2022-09-16T10:09:40.883Z,57.66
2022-09-16T10:10:40.869Z,59.05
2022-09-16T10:11:40.864Z,59.15
2022-09-16T10:12:40.860Z,60.38
2022-09-16T10:13:40.839Z,60.18
2022-09-16T10:14:40.833Z,59.15
2022-09-16T10:15:40.831Z,59.47
2022-09-16T10:16:40.845Z,59.89
2022-09-16T10:17:40.802Z,58.72
2022-09-16T10:18:40.793Z,59.08
2022-09-16T10:19:40.782Z,58.21
2022-09-16T10:20:40.774Z,59.34
2022-09-16T10:21:40.928Z,59.80
2022-09-16T10:22:40.746Z,60.54
2022-09-16T10:23:40.737Z,61.02
2022-09-16T10:24:40.728Z,61.54
2022-09-16T10:25:40.718Z,63.06
2022-09-16T10:26:40.715Z,63.73
2022-09-16T10:27:40.691Z,63.73
2022-09-16T10:28:40.680Z,63.37
2022-09-16T10:29:40.672Z,63.02
2022-09-16T10:30:40.670Z,61.70
2022-09-16T10:31:40.732Z,60.38
2022-09-16T10:32:40.637Z,59.08
2022-09-16T10:33:40.626Z,59.11
2022-09-16T10:34:40.612Z,58.85
2022-09-16T10:35:40.601Z,57.71
2022-09-16T10:36:40.590Z,55.98
2022-09-16T10:37:40.718Z,55.49
2022-09-16T10:38:40.567Z,55.46
2022-09-16T10:39:40.558Z,56.30
2022-09-16T10:40:40.565Z,56.88
2022-09-16T10:41:40.539Z,57.34
2022-09-16T10:42:40.523Z,57.82
2022-09-16T10:43:40.513Z,57.76
2022-09-16T10:44:40.503Z,57.11
2022-09-16T10:45:40.497Z,56.85
2022-09-16T10:46:40.604Z,56.68
2022-09-16T10:47:40.493Z,55.93
2022-09-16T10:48:40.468Z,55.47
2022-09-16T10:49:40.455Z,54.50
2022-09-16T10:50:40.442Z,54.24
2022-09-16T10:51:40.433Z,54.14
2022-09-16T10:52:40.423Z,54.34
2022-09-16T10:53:43.959Z,53.66
2022-09-16T10:54:40.395Z,53.24
2022-09-16T10:55:40.388Z,53.24
2022-09-16T10:56:40.380Z,53.34
2022-09-16T10:57:40.364Z,53.53
2022-09-16T10:58:40.363Z,54.70
2022-09-16T10:59:40.354Z,54.19
2022-09-16T11:00:45.435Z,54.84
2022-09-16T11:01:43.704Z,54.52
2022-09-16T11:02:40.314Z,55.27
2022-09-16T11:03:40.304Z,55.82
2022-09-16T11:04:40.297Z,56.60
2022-09-16T11:05:40.294Z,56.37
2022-09-16T11:06:40.282Z,56.83
2022-09-16T11:07:40.261Z,58.09
2022-09-16T11:08:40.249Z,58.25
2022-09-16T11:09:40.367Z,57.60
2022-09-16T11:10:40.226Z,58.60
2022-09-16T11:11:40.211Z,57.92
2022-09-16T11:12:40.205Z,56.50
2022-09-16T11:13:40.198Z,54.37
2022-09-16T11:14:40.181Z,54.27
2022-09-16T11:15:40.173Z,53.77
2022-09-16T11:16:40.230Z,53.96
2022-09-16T11:17:40.152Z,54.53
2022-09-16T11:18:40.137Z,55.51
2022-09-16T11:19:40.125Z,56.50
2022-09-16T11:20:40.118Z,55.76
2022-09-16T11:21:40.110Z,54.85
2022-09-16T11:22:40.090Z,53.89
2022-09-16T11:23:40.088Z,55.43
2022-09-16T11:24:40.071Z,55.11
2022-09-16T11:25:40.187Z,55.34
2022-09-16T11:26:40.048Z,55.73
2022-09-16T11:27:40.038Z,54.17
2022-09-16T11:28:40.028Z,54.66
2022-09-16T11:29:40.010Z,54.57
2022-09-16T11:30:40.004Z,55.17
2022-09-16T11:31:40.082Z,55.68
2022-09-16T11:32:40.244Z,54.91
2022-09-16T11:33:39.969Z,52.95
2022-09-16T11:34:39.959Z,53.50
2022-09-16T11:35:39.944Z,53.47
2022-09-16T11:36:39.935Z,55.29
2022-09-16T11:37:39.920Z,56.32
2022-09-16T11:38:43.791Z,56.13
2022-09-16T11:39:39.900Z,57.87
2022-09-16T11:40:39.888Z,56.96
2022-09-16T11:41:40.014Z,57.64
2022-09-16T11:42:39.867Z,58.42
2022-09-16T11:43:39.851Z,58.90
2022-09-16T11:44:39.840Z,59.16
2022-09-16T11:45:39.834Z,59.13
2022-09-16T11:46:39.880Z,59.78
2022-09-16T11:47:40.860Z,60.77
2022-09-16T11:51:39.758Z,59.00
2022-09-16T11:52:39.749Z,57.74
2022-09-16T11:53:42.261Z,57.64
2022-09-16T11:54:39.715Z,56.58
2022-09-16T11:55:39.708Z,56.00
2022-09-16T11:56:39.697Z,56.68
2022-09-16T11:57:39.809Z,56.58
2022-09-16T11:58:39.671Z,57.45
2022-09-16T11:59:39.658Z,58.70
2022-09-16T12:00:39.650Z,56.90
2022-09-16T12:01:39.720Z,56.99
2022-09-16T12:02:39.720Z,56.90
2022-09-16T12:03:39.613Z,56.03
2022-09-16T12:04:39.600Z,56.13
2022-09-16T12:05:39.585Z,55.35
2022-09-16T12:06:39.574Z,56.03
2022-09-16T12:07:39.568Z,56.68
2022-09-16T12:08:39.549Z,56.87
2022-09-16T12:09:39.540Z,57.26
2022-09-16T12:10:39.522Z,57.64
2022-09-16T12:11:39.515Z,57.19
2022-09-16T12:12:39.504Z,56.61
2022-09-16T12:13:39.631Z,56.20
2022-09-16T12:14:39.474Z,57.14
2022-09-16T12:15:39.467Z,57.06
2022-09-16T12:16:39.453Z,56.29
2022-09-16T12:17:39.442Z,54.46
2022-09-16T12:18:39.439Z,54.58
2022-09-16T12:19:39.417Z,55.35
2022-09-16T12:20:39.404Z,56.54
2022-09-16T12:21:39.395Z,56.28
2022-09-16T12:22:39.381Z,55.51
2022-09-16T12:23:39.373Z,54.83
2022-09-16T12:24:39.356Z,54.95
2022-09-16T12:25:42.094Z,55.34
2022-09-16T12:26:39.331Z,55.07
2022-09-16T12:27:39.335Z,53.36
2022-09-16T12:28:39.310Z,52.87
2022-09-16T12:29:39.435Z,53.00
2022-09-16T12:30:39.303Z,52.78
2022-09-16T12:31:39.331Z,51.62
2022-09-16T12:32:39.264Z,50.04
2022-09-16T12:33:39.256Z,50.14
2022-09-16T12:34:39.238Z,51.37
2022-09-16T12:35:39.234Z,52.53
2022-09-16T12:41:08.816Z,51.28
2022-09-16T12:42:06.640Z,49.85
2022-09-16T12:43:06.626Z,51.01
2022-09-16T12:44:23.478Z,53.13
2022-09-16T12:45:06.738Z,54.10
2022-09-16T12:46:06.689Z,54.32
2022-09-16T12:47:06.582Z,53.06
2022-09-16T12:48:06.571Z,53.35
2022-09-16T12:49:06.558Z,53.55
2022-09-16T12:50:06.543Z,53.28
2022-09-16T12:51:06.538Z,52.02
2022-09-16T12:52:06.525Z,51.71
2022-09-16T12:53:06.515Z,51.73
2022-09-16T12:54:06.502Z,50.84
2022-09-16T12:55:08.889Z,50.84
2022-09-16T12:56:06.475Z,51.81
2022-09-16T12:57:06.464Z,52.58
2022-09-16T12:58:06.448Z,52.77
2022-09-16T12:59:06.439Z,52.22
2022-09-16T13:00:06.424Z,52.61
2022-09-16T13:01:06.544Z,51.15
2022-09-16T13:02:06.540Z,52.70